Time;durP1;ratioP1;P1;durP2;ratioP2;P2;SDS_P1;SDS_P2;PMS_P1;PMS_P2;Temp;Humidity;BMP_temperature;BMP_pressure;BME280_temperature;BME280_humidity;BME280_pressure;Samples;Min_cycle;Max_cycle;Signal;HPM_P1;HPM_P2
2022/02/25 00:00:08;;;;;;;2.38;1.20;;;;;;;10.99;84.14;100878.63;2073393;28;20045;-76
2022/02/25 00:01:34;;;;;;;4.47;1.30;;;;;;;11.00;84.85;100875.13;2077155;28;20128;-76
2022/02/25 00:02:55;;;;;;;8.73;2.33;;;;;;;11.01;84.36;100872.53;2077236;28;20562;-76
2022/02/25 00:04:18;;;;;;;3.80;1.65;;;;;;;10.99;84.10;100844.31;2068929;28;20049;-76
2022/02/25 00:05:41;;;;;;;5.90;1.88;;;;;;;10.98;82.98;100847.81;2075412;28;20115;-76
2022/02/25 00:07:05;;;;;;;7.22;1.73;;;;;;;10.97;82.07;100846.91;2069611;28;20443;-76
2022/02/25 00:08:26;;;;;;;9.40;1.80;;;;;;;10.97;82.35;100852.19;2067318;28;20054;-77
2022/02/25 00:09:49;;;;;;;6.25;1.50;;;;;;;10.98;82.87;100864.53;2070223;28;20208;-76
2022/02/25 00:11:12;;;;;;;6.90;1.98;;;;;;;10.98;83.37;100869.81;2072725;28;20060;-76
2022/02/25 00:12:35;;;;;;;5.88;1.65;;;;;;;11.01;84.03;100854.03;2077664;28;20390;-76
2022/02/25 00:13:58;;;;;;;3.95;1.65;;;;;;;11.01;83.79;100861.06;2069617;28;20046;-76
2022/02/25 00:15:19;;;;;;;9.70;2.03;;;;;;;10.98;83.55;100869.81;2077735;28;20052;-76
2022/02/25 00:16:43;;;;;;;2.17;1.02;;;;;;;10.93;84.28;100852.13;2074688;28;20072;-76
2022/02/25 00:18:05;;;;;;;3.72;1.52;;;;;;;10.92;84.60;100859.16;2077752;28;20049;-76
2022/02/25 00:19:28;;;;;;;3.75;1.17;;;;;;;10.89;84.10;100869.69;2074577;28;20517;-77
2022/02/25 00:20:51;;;;;;;8.70;2.78;;;;;;;10.87;84.30;100878.44;2085575;28;20037;-76
2022/02/25 00:22:14;;;;;;;8.98;2.22;;;;;;;10.86;85.12;100879.31;2080414;28;20083;-76
2022/02/25 00:23:37;;;;;;;4.15;1.92;;;;;;;10.85;84.77;100882.81;2069168;28;20050;-76
2022/02/25 00:25:00;;;;;;;13.57;2.42;;;;;;;10.85;85.36;100882.81;2069615;28;20431;-76
2022/02/25 00:26:23;;;;;;;3.78;0.95;;;;;;;10.83;85.22;100869.56;2061888;28;20062;-76
2022/02/25 00:27:47;;;;;;;4.82;1.95;;;;;;;10.82;84.94;100883.66;2074977;28;20049;-76
2022/02/25 00:29:09;;;;;;;5.72;2.33;;;;;;;10.77;84.27;100873.00;2076839;28;20524;-76
2022/02/25 00:30:33;;;;;;;2.83;1.83;;;;;;;10.76;84.55;100891.50;2063692;28;20054;-76
2022/02/25 00:31:54;;;;;;;6.70;1.95;;;;;;;10.74;85.13;100895.84;2064727;28;20089;-77
2022/02/25 00:33:17;;;;;;;4.72;2.17;;;;;;;10.71;84.97;100895.78;2076728;28;20603;-75
2022/02/25 00:34:39;;;;;;;9.45;2.03;;;;;;;10.69;85.22;100903.69;2064729;28;20046;-76
2022/02/25 00:36:02;;;;;;;6.53;2.05;;;;;;;10.67;85.56;100910.69;2067051;28;20129;-76
2022/02/25 00:37:23;;;;;;;9.70;1.92;;;;;;;10.69;86.09;100910.72;2061485;28;20053;-76
2022/02/25 00:38:46;;;;;;;12.25;2.33;;;;;;;10.67;86.16;100902.78;2078815;28;20139;-76
2022/02/25 00:40:09;;;;;;;7.35;2.58;;;;;;;10.67;85.62;100918.63;2081292;28;20499;-76
2022/02/25 00:41:32;;;;;;;7.13;1.70;;;;;;;10.65;85.88;100922.06;2065282;28;20065;-77
2022/02/25 00:42:56;;;;;;;9.07;2.50;;;;;;;10.62;85.87;100907.09;2084402;28;20040;-77
2022/02/25 00:44:18;;;;;;;3.45;1.77;;;;;;;10.56;86.04;100908.72;2072947;28;20076;-77
2022/02/25 00:45:40;;;;;;;4.90;1.80;;;;;;;10.53;86.52;100896.34;2069530;28;20042;-77
2022/02/25 00:47:03;;;;;;;8.15;2.15;;;;;;;10.52;85.88;100896.31;2081479;28;20140;-77
2022/02/25 00:48:25;;;;;;;5.72;1.98;;;;;;;10.50;86.37;100895.44;2073444;28;20046;-77
2022/02/25 00:49:48;;;;;;;10.90;2.22;;;;;;;10.51;86.23;100905.09;2063305;28;20062;-77
2022/02/25 00:51:11;;;;;;;8.00;2.35;;;;;;;10.52;86.11;100912.16;2068199;28;20042;-77
2022/02/25 00:52:32;;;;;;;5.15;2.60;;;;;;;10.54;86.75;100897.25;2070856;28;20086;-77
2022/02/25 00:53:55;;;;;;;4.70;1.30;;;;;;;10.54;86.66;100907.81;2070733;28;20054;-77
2022/02/25 00:55:17;;;;;;;12.05;5.22;;;;;;;10.55;86.38;100915.75;2075229;28;20806;-76
2022/02/25 00:56:40;;;;;;;3.55;1.52;;;;;;;10.54;85.18;100916.63;2079043;28;20049;-77
2022/02/25 00:58:04;;;;;;;5.05;2.00;;;;;;;10.57;85.45;100921.03;2078958;28;20640;-77
2022/02/25 00:59:25;;;;;;;6.00;1.67;;;;;;;10.56;84.88;100928.09;2074122;28;20096;-76
2022/02/25 01:00:48;;;;;;;4.28;2.47;;;;;;;10.60;85.23;100923.75;2070542;28;20069;-76
2022/02/25 01:02:11;;;;;;;6.72;1.95;;;;;;;10.61;85.57;100941.38;2076392;28;20196;-76
2022/02/25 01:03:35;;;;;;;3.80;1.48;;;;;;;10.65;85.71;100927.34;2078823;28;20454;-76
2022/02/25 01:05:00;;;;;;;4.00;1.90;;;;;;;10.65;85.38;100922.06;2071082;28;20053;-77
2022/02/25 01:06:22;;;;;;;6.82;2.25;;;;;;;10.67;85.28;100930.91;2071482;28;20049;-76
2022/02/25 01:07:46;;;;;;;7.35;2.55;;;;;;;10.68;85.73;100935.34;2086910;28;20045;-76
2022/02/25 01:09:07;;;;;;;8.40;3.10;;;;;;;10.64;85.34;100921.19;2073133;28;20478;-76
2022/02/25 01:10:30;;;;;;;5.75;2.55;;;;;;;10.62;85.64;100933.50;2086697;28;20465;-76
2022/02/25 01:11:52;;;;;;;5.82;2.05;;;;;;;10.60;85.03;100923.75;2075842;28;20054;-75
2022/02/25 01:13:15;;;;;;;6.50;2.17;;;;;;;10.60;85.42;100926.38;2078141;28;20049;-75
2022/02/25 01:14:38;;;;;;;6.72;2.30;;;;;;;10.59;85.23;100943.09;2077722;28;20049;-75
2022/02/25 01:15:59;;;;;;;4.60;1.60;;;;;;;10.58;84.99;100933.38;2070559;28;20431;-76
2022/02/25 01:17:23;;;;;;;3.10;1.50;;;;;;;10.58;85.58;100931.63;2070428;28;20053;-76
2022/02/25 01:18:45;;;;;;;3.15;1.73;;;;;;;10.58;85.06;100946.56;2070573;28;20103;-76
2022/02/25 01:20:09;;;;;;;2.10;1.33;;;;;;;10.60;85.84;100935.19;2075151;28;20439;-76
2022/02/25 01:21:30;;;;;;;5.45;2.47;;;;;;;10.60;85.19;100923.75;2069060;28;20085;-76
2022/02/25 01:22:53;;;;;;;5.05;1.70;;;;;;;10.61;85.42;100942.25;2070477;28;20050;-76
2022/02/25 01:24:15;;;;;;;4.88;1.33;;;;;;;10.63;85.36;100923.81;2076058;28;20132;-75
2022/02/25 01:25:38;;;;;;;7.78;1.83;;;;;;;10.65;85.40;100945.84;2073806;28;20053;-76
2022/02/25 01:27:00;;;;;;;2.22;1.00;;;;;;;10.64;85.38;100947.56;2086631;28;20044;-76
2022/02/25 01:28:25;;;;;;;7.45;1.30;;;;;;;10.66;85.83;100927.38;2072738;28;20133;-76
2022/02/25 01:29:47;;;;;;;12.43;1.95;;;;;;;10.65;85.64;100927.34;2073501;28;20056;-75
2022/02/25 01:31:09;;;;;;;11.05;2.42;;;;;;;10.65;85.46;100943.19;2070605;28;20131;-76
2022/02/25 01:32:32;;;;;;;5.18;2.25;;;;;;;10.67;85.32;100929.16;2086565;28;20484;-75
2022/02/25 01:33:53;;;;;;;5.97;2.20;;;;;;;10.68;84.77;100930.94;2067789;28;20527;-75
2022/02/25 01:35:16;;;;;;;10.35;3.05;;;;;;;10.70;85.30;100939.78;2069366;28;20140;-75
2022/02/25 01:36:38;;;;;;;8.23;1.98;;;;;;;10.73;85.12;100936.31;2070510;28;20056;-75
2022/02/25 01:38:01;;;;;;;4.00;1.92;;;;;;;10.76;84.39;100953.06;2070393;28;20034;-75
2022/02/25 01:39:24;;;;;;;5.05;2.45;;;;;;;10.77;84.36;100922.28;2070465;28;20137;-75
2022/02/25 01:40:45;;;;;;;4.10;2.28;;;;;;;10.80;84.34;100938.19;2082953;28;20060;-75
2022/02/25 01:42:09;;;;;;;7.35;2.65;;;;;;;10.82;83.90;100951.44;2081133;28;20073;-75
2022/02/25 01:43:33;;;;;;;9.77;2.80;;;;;;;10.86;84.55;100943.56;2078494;28;20106;-75
2022/02/25 01:44:56;;;;;;;3.60;1.88;;;;;;;10.82;83.50;100941.75;2062422;28;20085;-75
2022/02/25 01:46:18;;;;;;;6.13;1.95;;;;;;;10.83;84.06;100948.78;2070248;28;20045;-75
2022/02/25 01:47:40;;;;;;;6.22;2.10;;;;;;;10.86;83.99;100958.53;2073887;28;20607;-74
2022/02/25 01:49:02;;;;;;;4.32;2.00;;;;;;;10.82;83.25;100954.97;2072670;28;20046;-75
2022/02/25 01:50:25;;;;;;;8.52;1.90;;;;;;;10.84;83.79;100958.50;2077666;28;20073;-75
2022/02/25 01:51:49;;;;;;;9.70;2.33;;;;;;;10.87;84.06;100950.63;2077991;28;20034;-75
2022/02/25 01:53:10;;;;;;;2.95;1.42;;;;;;;10.88;83.54;100951.53;2078687;28;20148;-75
2022/02/25 01:54:34;;;;;;;9.75;2.15;;;;;;;10.90;83.63;100960.34;2076915;28;20041;-75
2022/02/25 01:55:57;;;;;;;8.13;2.15;;;;;;;10.89;83.83;100954.22;2083176;28;20048;-75
2022/02/25 01:57:19;;;;;;;3.88;1.58;;;;;;;10.89;83.33;100959.50;2078490;28;20053;-75
2022/02/25 01:58:43;;;;;;;3.38;1.42;;;;;;;10.91;83.74;100946.28;2074987;28;20054;-75
2022/02/25 02:00:08;;;;;;;6.50;1.92;;;;;;;10.89;83.39;100953.31;2080931;28;20045;-75
2022/02/25 02:01:35;;;;;;;6.95;1.92;;;;;;;10.89;83.39;100956.84;2072957;28;20184;-75
2022/02/25 02:02:58;;;;;;;7.18;2.72;;;;;;;10.84;83.73;100950.56;2068692;28;20046;-75
2022/02/25 02:04:21;;;;;;;8.48;2.72;;;;;;;10.81;83.77;100947.00;2076159;28;20048;-75
2022/02/25 02:05:43;;;;;;;2.58;1.70;;;;;;;10.77;83.35;100939.00;2070025;28;20072;-75
2022/02/25 02:07:08;;;;;;;6.05;2.03;;;;;;;10.78;83.35;100967.19;2059811;28;20141;-75
2022/02/25 02:08:30;;;;;;;4.57;1.38;;;;;;;10.80;83.75;100975.16;2062065;28;20058;-75
2022/02/25 02:09:53;;;;;;;6.68;2.17;;;;;;;10.78;84.08;100968.94;2069256;28;20073;-75
2022/02/25 02:11:27;;;;;;;8.48;2.53;;;;;;;10.81;83.83;100961.09;2078377;28;20041;-75
2022/02/25 02:12:50;;;;;;;8.13;1.65;;;;;;;10.78;84.15;100976.88;2070334;28;20143;-75
2022/02/25 02:14:17;;;;;;;6.60;2.50;;;;;;;10.79;84.04;100973.38;2069821;28;20049;-75
2022/02/25 02:15:38;;;;;;;5.45;1.55;;;;;;;10.79;83.84;100968.09;2068183;28;20061;-75
2022/02/25 02:17:01;;;;;;;6.50;1.95;;;;;;;10.77;83.62;100968.06;2066538;28;20092;-75
2022/02/25 02:18:24;;;;;;;4.63;1.70;;;;;;;10.78;83.70;100969.84;2059647;28;20053;-75
2022/02/25 02:19:46;;;;;;;8.20;2.53;;;;;;;10.77;83.76;100967.16;2076261;28;20053;-75
2022/02/25 02:21:08;;;;;;;5.40;1.60;;;;;;;10.77;83.95;100983.91;2072971;28;20046;-75
2022/02/25 02:22:32;;;;;;;4.70;2.05;;;;;;;10.80;84.20;100977.81;2069769;28;20096;-75
2022/02/25 02:23:55;;;;;;;7.88;2.35;;;;;;;10.80;84.21;100985.72;2070507;28;20046;-75
2022/02/25 02:25:18;;;;;;;3.50;2.03;;;;;;;10.78;84.30;100982.16;2078392;28;20128;-75
2022/02/25 02:26:40;;;;;;;3.75;1.50;;;;;;;10.77;83.35;100988.28;2070247;28;20067;-75
2022/02/25 02:28:21;;;;;;;3.83;1.77;;;;;;;10.77;82.79;100991.81;2073682;28;20494;-75
2022/02/25 02:29:43;;;;;;;3.67;1.25;;;;;;;10.78;83.13;100992.72;2072992;28;20471;-76
2022/02/25 02:31:06;;;;;;;4.22;1.75;;;;;;;10.78;82.89;100990.06;2078601;28;20041;-75
2022/02/25 02:32:28;;;;;;;12.10;4.03;;;;;;;10.80;82.70;100991.00;2066583;28;20448;-75
2022/02/25 02:33:51;;;;;;;10.15;3.17;;;;;;;10.82;82.73;100985.75;2059317;28;20046;-76
2022/02/25 02:35:12;;;;;;;9.77;3.00;;;;;;;10.82;82.93;100997.22;2083818;28;20180;-76
2022/02/25 02:36:35;;;;;;;6.40;2.10;;;;;;;10.84;83.02;100989.28;2074035;28;20041;-75
2022/02/25 02:37:58;;;;;;;4.75;2.10;;;;;;;10.88;82.82;100997.31;2069972;28;20519;-75
2022/02/25 02:39:20;;;;;;;5.43;2.38;;;;;;;10.88;82.49;100994.69;2084456;28;20064;-75
2022/02/25 02:40:42;;;;;;;8.05;3.20;;;;;;;10.88;82.55;100994.69;2058834;28;20171;-75
2022/02/25 02:42:05;;;;;;;8.60;3.90;;;;;;;10.87;81.76;100987.63;2064744;28;20050;-74
2022/02/25 02:43:28;;;;;;;10.77;4.28;;;;;;;10.87;81.30;100999.94;2074607;28;20046;-75
2022/02/25 02:44:50;;;;;;;10.55;4.30;;;;;;;10.88;81.45;100996.44;2070038;28;20049;-75
2022/02/25 02:46:13;;;;;;;11.20;3.58;;;;;;;10.90;81.84;101005.25;2059105;28;20050;-75
2022/02/25 02:47:36;;;;;;;9.88;3.35;;;;;;;10.90;82.53;101000.84;2073025;28;20178;-75
2022/02/25 02:48:58;;;;;;;7.45;3.28;;;;;;;10.91;82.16;100989.44;2066464;28;20046;-75
2022/02/25 02:50:21;;;;;;;9.95;3.10;;;;;;;10.92;82.02;101000.91;2075276;28;20510;-75
2022/02/25 02:51:44;;;;;;;9.95;4.38;;;;;;;10.92;81.67;100974.47;2072460;28;20547;-75
2022/02/25 02:53:08;;;;;;;5.15;1.92;;;;;;;10.93;81.43;100994.75;2077771;28;20041;-75
2022/02/25 02:54:30;;;;;;;6.75;3.08;;;;;;;10.93;81.41;100998.28;2078110;28;20053;-75
2022/02/25 02:55:53;;;;;;;3.88;1.90;;;;;;;10.94;81.30;100989.50;2061668;28;20045;-75
2022/02/25 02:57:14;;;;;;;10.18;3.53;;;;;;;10.97;81.63;101002.75;2066138;28;20133;-75
2022/02/25 02:58:38;;;;;;;7.00;3.28;;;;;;;10.95;81.53;100996.56;2068987;28;20046;-74
2022/02/25 02:59:59;;;;;;;7.30;2.78;;;;;;;10.96;81.44;100990.41;2066997;28;20092;-74
2022/02/25 03:01:23;;;;;;;6.07;2.17;;;;;;;10.93;80.95;101007.97;2072550;28;20121;-74
2022/02/25 03:02:45;;;;;;;4.72;2.25;;;;;;;10.91;81.45;100991.19;2069344;28;20130;-74
2022/02/25 03:04:08;;;;;;;9.32;2.63;;;;;;;10.88;81.14;101001.72;2076340;28;20091;-74
2022/02/25 03:05:30;;;;;;;11.90;2.70;;;;;;;10.87;81.10;101013.13;2069650;28;20653;-74
2022/02/25 03:06:52;;;;;;;6.88;2.78;;;;;;;10.87;81.34;101006.09;2070154;28;20160;-75
2022/02/25 03:08:17;;;;;;;6.03;1.92;;;;;;;10.89;81.63;101019.34;2085807;28;20453;-74
2022/02/25 03:09:40;;;;;;;4.18;1.45;;;;;;;10.88;81.06;101025.47;2074488;28;20054;-74
2022/02/25 03:11:02;;;;;;;5.13;1.90;;;;;;;10.89;81.31;101022.88;2074573;28;20132;-74
2022/02/25 03:12:24;;;;;;;4.70;2.05;;;;;;;10.88;81.59;101014.91;2068574;28;20076;-75
2022/02/25 03:13:47;;;;;;;6.68;2.80;;;;;;;10.89;81.41;101028.16;2059210;28;20070;-74
2022/02/25 03:15:10;;;;;;;5.25;2.42;;;;;;;10.88;81.82;101020.19;2067598;28;20046;-74
2022/02/25 03:16:32;;;;;;;5.88;2.60;;;;;;;10.85;81.12;101038.63;2085720;28;20051;-74
2022/02/25 03:17:55;;;;;;;6.70;2.75;;;;;;;10.86;81.75;101030.72;2066375;28;20139;-75
2022/02/25 03:19:18;;;;;;;6.80;2.53;;;;;;;10.86;81.49;101032.47;2074913;28;20547;-74
2022/02/25 03:20:41;;;;;;;17.80;3.13;;;;;;;10.87;81.25;101045.72;2069501;28;20042;-74
2022/02/25 03:22:03;;;;;;;9.15;2.88;;;;;;;10.88;81.76;101044.84;2071832;28;20097;-74
2022/02/25 03:23:47;;;;;;;3.95;2.50;;;;;;;10.90;81.28;101031.66;2075428;28;20044;-74
2022/02/25 03:25:13;;;;;;;7.53;2.63;;;;;;;10.88;79.36;101058.06;2077946;28;20123;-74
2022/02/25 03:26:36;;;;;;;5.15;2.10;;;;;;;10.86;79.45;101049.22;2068620;28;20045;-74
2022/02/25 03:27:57;;;;;;;9.55;3.15;;;;;;;10.89;79.87;101066.88;2080850;28;20048;-74
2022/02/25 03:29:19;;;;;;;3.88;1.55;;;;;;;10.90;80.19;101060.72;2080334;28;20049;-75
2022/02/25 03:30:42;;;;;;;2.17;1.45;;;;;;;10.88;80.12;101063.34;2069650;28;20128;-74
2022/02/25 03:32:04;;;;;;;3.58;1.52;;;;;;;10.86;80.31;101067.69;2074927;28;20045;-74
2022/02/25 03:33:27;;;;;;;7.63;2.95;;;;;;;10.87;80.95;101080.06;2077404;28;20045;-74
2022/02/25 03:34:50;;;;;;;7.40;2.53;;;;;;;10.87;80.47;101066.84;2072441;28;20042;-74
2022/02/25 03:36:13;;;;;;;8.85;2.95;;;;;;;10.87;80.31;101076.50;2072906;28;20104;-74
2022/02/25 03:37:35;;;;;;;6.63;2.38;;;;;;;10.87;80.72;101076.50;2069834;28;20049;-74
2022/02/25 03:38:59;;;;;;;5.53;1.92;;;;;;;10.89;80.48;101080.97;2068390;28;20136;-74
2022/02/25 03:40:22;;;;;;;7.85;2.42;;;;;;;10.89;80.91;101083.63;2073444;28;20081;-74
2022/02/25 03:41:44;;;;;;;5.68;2.13;;;;;;;10.91;81.30;101095.09;2064599;28;20141;-75
2022/02/25 03:43:06;;;;;;;7.05;2.08;;;;;;;10.90;80.42;101061.59;2066927;28;20511;-74
2022/02/25 03:44:29;;;;;;;6.80;1.90;;;;;;;10.91;79.62;101076.59;2075021;28;20057;-74
2022/02/25 03:45:50;;;;;;;4.30;1.60;;;;;;;10.91;78.96;101089.78;2069213;28;20038;-74
2022/02/25 03:47:13;;;;;;;6.00;1.90;;;;;;;10.92;79.75;101086.31;2070730;28;20061;-74
2022/02/25 03:48:36;;;;;;;9.38;1.98;;;;;;;10.93;79.87;101097.75;2069296;28;20056;-74
2022/02/25 03:49:59;;;;;;;9.80;1.67;;;;;;;10.94;79.77;101105.72;2068151;28;20046;-74
2022/02/25 03:51:23;;;;;;;7.40;1.83;;;;;;;10.95;79.95;101106.63;2064057;28;20081;-74
2022/02/25 03:52:44;;;;;;;11.52;2.67;;;;;;;10.97;80.78;101105.75;2061691;28;20054;-74
2022/02/25 03:54:08;;;;;;;10.30;2.88;;;;;;;11.00;80.96;101110.22;2070233;28;20685;-74
2022/02/25 03:55:31;;;;;;;7.72;2.90;;;;;;;11.00;79.58;101103.19;2080323;28;20108;-74
2022/02/25 03:56:52;;;;;;;8.98;2.65;;;;;;;10.97;79.41;101112.78;2069230;28;20149;-74
2022/02/25 03:58:15;;;;;;;9.55;2.80;;;;;;;10.98;80.01;101114.56;2069522;28;20120;-74
2022/02/25 03:59:36;;;;;;;7.60;2.20;;;;;;;10.98;80.46;101123.41;2067564;28;20050;-74
2022/02/25 04:00:59;;;;;;;8.75;3.00;;;;;;;10.97;79.95;101118.06;2069143;28;20048;-74
2022/02/25 04:02:21;;;;;;;5.55;2.13;;;;;;;10.96;79.75;101114.53;2069648;28;20100;-74
2022/02/25 04:03:44;;;;;;;8.10;2.35;;;;;;;10.95;79.58;101126.00;2074248;28;20073;-74
2022/02/25 04:05:06;;;;;;;5.80;1.75;;;;;;;10.95;79.57;101122.47;2063948;28;20042;-74
2022/02/25 04:06:29;;;;;;;5.45;2.20;;;;;;;10.96;79.72;101122.47;2067103;28;20670;-74
2022/02/25 04:07:53;;;;;;;3.67;1.58;;;;;;;10.95;79.30;101117.19;2069144;28;20057;-74
2022/02/25 04:09:18;;;;;;;5.88;1.58;;;;;;;10.96;79.02;101114.53;2076221;28;20053;-74
2022/02/25 04:10:41;;;;;;;4.57;2.15;;;;;;;10.95;79.16;101114.53;2077571;28;20037;-74
2022/02/25 04:12:03;;;;;;;5.13;2.25;;;;;;;10.94;78.11;101121.56;2072331;28;20140;-74
2022/02/25 04:13:26;;;;;;;8.57;1.73;;;;;;;10.96;78.34;101121.59;2073663;28;20076;-74
2022/02/25 04:14:49;;;;;;;5.22;1.63;;;;;;;10.97;78.55;101121.59;2054942;28;20109;-74
2022/02/25 04:16:12;;;;;;;5.18;1.92;;;;;;;10.97;79.01;101100.47;2066202;28;20077;-74
2022/02/25 04:17:35;;;;;;;4.15;1.73;;;;;;;10.97;78.22;101118.06;2087162;28;20041;-74
2022/02/25 04:18:57;;;;;;;6.18;1.88;;;;;;;10.99;78.75;101121.66;2073193;28;20050;-74
2022/02/25 04:20:20;;;;;;;8.15;2.60;;;;;;;11.01;79.01;101115.53;2076633;28;20049;-74
2022/02/25 04:21:43;;;;;;;11.65;2.67;;;;;;;11.01;79.26;101115.53;2078629;28;20083;-74
2022/02/25 04:23:06;;;;;;;10.57;2.63;;;;;;;11.00;78.72;101124.31;2078142;28;20069;-74
2022/02/25 04:24:28;;;;;;;5.10;1.63;;;;;;;11.03;77.78;101111.16;2071157;28;20049;-74
2022/02/25 04:25:52;;;;;;;12.05;2.40;;;;;;;11.02;77.97;101125.25;2065308;28;20547;-74
2022/02/25 04:27:13;;;;;;;5.15;1.95;;;;;;;11.01;78.13;101123.47;2068953;28;20046;-74
2022/02/25 04:28:36;;;;;;;4.65;2.25;;;;;;;11.03;77.76;101128.75;2086994;28;20045;-74
2022/02/25 04:29:58;;;;;;;11.27;1.80;;;;;;;11.04;78.50;101125.25;2073471;28;20053;-74
2022/02/25 04:31:21;;;;;;;6.47;2.05;;;;;;;11.04;78.26;101123.50;2062885;28;20085;-74
2022/02/25 04:32:44;;;;;;;6.82;1.40;;;;;;;11.05;78.12;101111.19;2084926;28;20115;-74
2022/02/25 04:34:06;;;;;;;8.07;2.65;;;;;;;11.04;77.81;101112.94;2066722;28;20148;-74
2022/02/25 04:35:29;;;;;;;12.40;2.80;;;;;;;11.05;78.10;101116.47;2068516;28;20076;-74
2022/02/25 04:36:52;;;;;;;6.75;2.28;;;;;;;11.05;77.87;101120.03;2076518;28;20128;-74
2022/02/25 04:38:14;;;;;;;6.93;2.30;;;;;;;11.04;76.67;101134.09;2078782;28;20123;-74
2022/02/25 04:39:39;;;;;;;4.93;1.92;;;;;;;11.07;77.33;101134.16;2073345;28;20460;-74
2022/02/25 04:41:02;;;;;;;7.88;2.63;;;;;;;11.06;77.40;101134.13;2079263;28;20514;-74
2022/02/25 04:42:24;;;;;;;7.28;2.63;;;;;;;11.05;76.92;101120.03;2073331;28;20603;-75
2022/02/25 04:43:47;;;;;;;9.63;2.78;;;;;;;11.05;75.20;101127.94;2074495;28;20091;-74
2022/02/25 04:45:10;;;;;;;10.50;3.42;;;;;;;11.07;75.81;101138.53;2073504;28;20566;-74
2022/02/25 04:46:33;;;;;;;7.07;2.50;;;;;;;11.05;75.62;101120.03;2070769;28;20492;-74
2022/02/25 04:47:57;;;;;;;8.77;2.88;;;;;;;11.06;75.51;101134.13;2070883;28;20038;-74
2022/02/25 04:49:20;;;;;;;5.15;1.42;;;;;;;11.07;75.64;101128.88;2075590;28;20103;-74
2022/02/25 04:50:41;;;;;;;8.00;1.90;;;;;;;11.08;75.92;101135.06;2072469;28;20570;-74
2022/02/25 04:52:04;;;;;;;6.32;1.95;;;;;;;11.08;75.09;101130.66;2067940;28;20046;-74
2022/02/25 04:53:27;;;;;;;6.40;1.75;;;;;;;11.10;75.36;101141.22;2064493;28;20214;-74
2022/02/25 04:54:52;;;;;;;9.10;1.95;;;;;;;11.12;76.11;101137.78;2078991;28;20054;-74
2022/02/25 04:56:15;;;;;;;10.20;1.80;;;;;;;11.11;75.89;101138.63;2073315;28;20431;-74
2022/02/25 04:57:37;;;;;;;7.07;2.00;;;;;;;11.09;75.79;101137.69;2070668;28;20107;-75
2022/02/25 04:59:00;;;;;;;5.65;1.95;;;;;;;11.08;75.44;101141.22;2078553;28;20053;-74
2022/02/25 05:00:22;;;;;;;3.15;1.40;;;;;;;11.09;74.58;101160.63;2074664;28;20052;-74
2022/02/25 05:01:46;;;;;;;8.23;2.20;;;;;;;11.06;75.11;101150.88;2073321;28;20134;-74
2022/02/25 05:03:09;;;;;;;7.65;1.95;;;;;;;11.05;74.06;101143.78;2087004;28;20095;-75
2022/02/25 05:04:30;;;;;;;10.13;2.30;;;;;;;11.03;73.70;101144.59;2074962;28;20053;-74
2022/02/25 05:05:53;;;;;;;12.50;2.97;;;;;;;11.02;74.22;101146.41;2065139;28;20046;-75
2022/02/25 05:07:16;;;;;;;6.28;1.95;;;;;;;11.03;73.79;101126.13;2059910;28;20051;-75
2022/02/25 05:08:38;;;;;;;7.63;2.15;;;;;;;11.03;73.59;101142.88;2084127;28;20090;-74
2022/02/25 05:10:03;;;;;;;6.85;1.77;;;;;;;11.05;74.24;101141.16;2080121;28;20077;-75
2022/02/25 05:11:26;;;;;;;13.45;2.42;;;;;;;11.02;73.17;101137.56;2070514;28;20038;-74
2022/02/25 05:12:47;;;;;;;12.88;2.28;;;;;;;11.02;72.66;101129.66;2067453;28;20069;-74
2022/02/25 05:20:15;;;;;;;5.65;1.75;;;;;;;11.01;72.89;101141.97;2065178;28;20527;-75
2022/02/25 05:20:53;;;;;;;11.02;2.30;;;;;;;11.06;74.02;101157.91;2086934;28;20040;-74
2022/02/25 05:22:14;;;;;;;5.30;2.28;;;;;;;11.07;74.92;101159.69;2075482;28;20045;-74
2022/02/25 05:23:36;;;;;;;5.82;1.75;;;;;;;11.07;73.37;101159.69;2073842;28;20081;-74
2022/02/25 05:24:58;;;;;;;4.75;1.95;;;;;;;11.07;73.62;101142.09;2077738;28;20132;-75
2022/02/25 05:26:22;;;;;;;15.25;2.75;;;;;;;11.08;73.31;101165.00;2079229;28;20057;-74
2022/02/25 05:27:44;;;;;;;11.05;2.30;;;;;;;11.07;73.65;101159.69;2070600;28;20062;-74
2022/02/25 05:29:06;;;;;;;7.10;3.17;;;;;;;11.07;73.99;101171.16;2070446;28;20084;-75
2022/02/25 05:30:29;;;;;;;13.90;3.15;;;;;;;11.08;74.66;101177.31;2072956;28;20061;-75
2022/02/25 05:31:51;;;;;;;6.22;2.42;;;;;;;11.08;74.82;101178.22;2078215;28;20033;-74
2022/02/25 05:33:14;;;;;;;7.35;1.98;;;;;;;11.09;75.18;101173.81;2077011;28;20121;-74
2022/02/25 05:34:36;;;;;;;5.63;2.15;;;;;;;11.08;74.97;101194.06;2069744;28;20042;-74
2022/02/25 05:35:59;;;;;;;9.48;2.35;;;;;;;11.08;74.26;101178.22;2069826;28;20540;-74
2022/02/25 05:37:22;;;;;;;11.32;2.50;;;;;;;11.09;73.62;101190.53;2070060;28;20148;-74
2022/02/25 05:38:48;;;;;;;5.95;3.22;;;;;;;11.10;74.24;101180.84;2070077;28;20077;-74
2022/02/25 05:40:12;;;;;;;12.05;3.20;;;;;;;11.12;74.67;101179.16;2076984;28;20103;-74
2022/02/25 05:41:36;;;;;;;11.48;2.67;;;;;;;11.12;73.40;101189.72;2064218;28;20125;-75
2022/02/25 05:42:57;;;;;;;14.80;4.03;;;;;;;11.09;73.12;101185.25;2076196;28;20033;-75
2022/02/25 05:44:20;;;;;;;7.38;2.58;;;;;;;11.09;73.17;101194.97;2078208;28;20077;-74
2022/02/25 05:45:41;;;;;;;8.30;2.38;;;;;;;11.08;72.99;101183.50;2078623;28;20465;-75
2022/02/25 05:47:04;;;;;;;7.40;2.50;;;;;;;11.10;73.01;101191.44;2079403;28;20063;-74
2022/02/25 05:48:27;;;;;;;8.88;2.40;;;;;;;11.10;73.73;101194.97;2078932;28;20092;-75
2022/02/25 05:49:49;;;;;;;7.90;2.47;;;;;;;11.10;72.71;101192.31;2070500;28;20092;-74
2022/02/25 05:51:12;;;;;;;5.13;1.23;;;;;;;11.09;71.97;101193.19;2074275;28;20073;-74
2022/02/25 05:52:34;;;;;;;4.57;1.83;;;;;;;11.05;70.72;101206.31;2078540;28;20144;-74
2022/02/25 05:53:57;;;;;;;9.30;4.28;;;;;;;11.06;70.84;101192.25;2077638;28;20121;-74
2022/02/25 05:55:20;;;;;;;9.13;3.47;;;;;;;11.09;71.96;101206.38;2073563;28;20443;-74
2022/02/25 05:56:44;;;;;;;10.38;3.80;;;;;;;11.10;71.70;101197.59;2072884;28;20081;-74
2022/02/25 05:58:05;;;;;;;8.05;3.53;;;;;;;11.09;70.67;101190.53;2070434;28;20052;-74
2022/02/25 05:59:28;;;;;;;17.17;2.35;;;;;;;11.08;70.65;101199.34;2081119;28;20077;-74
2022/02/25 06:00:50;;;;;;;8.10;3.33;;;;;;;11.09;70.83;101209.03;2069915;28;20046;-74
2022/02/25 06:02:13;;;;;;;12.93;3.03;;;;;;;11.08;70.48;101209.03;2075584;28;20049;-74
2022/02/25 06:03:35;;;;;;;6.07;1.88;;;;;;;11.08;69.82;101204.63;2077975;28;20458;-74
2022/02/25 06:04:58;;;;;;;6.75;3.00;;;;;;;11.10;69.34;101192.31;2078318;28;20029;-74
2022/02/25 06:06:20;;;;;;;18.30;3.75;;;;;;;11.12;70.81;101206.47;2068339;28;20053;-74
2022/02/25 06:07:41;;;;;;;9.88;3.45;;;;;;;11.15;70.06;101201.25;2061773;28;20042;-74
2022/02/25 06:09:04;;;;;;;10.82;3.85;;;;;;;11.17;69.67;101188.06;2077665;28;20094;-75
2022/02/25 06:10:25;;;;;;;6.93;2.83;;;;;;;11.20;70.10;101177.56;2083254;28;20461;-74
2022/02/25 06:11:49;;;;;;;11.65;3.63;;;;;;;11.21;70.87;101199.59;2080880;28;20448;-75
2022/02/25 06:13:12;;;;;;;7.82;2.63;;;;;;;11.19;70.78;101192.53;2070322;28;20107;-74
2022/02/25 06:14:34;;;;;;;7.15;3.90;;;;;;;11.21;70.91;101194.31;2072491;28;20079;-74
2022/02/25 06:15:59;;;;;;;5.97;2.60;;;;;;;11.23;72.09;101195.22;2071252;28;20042;-75
2022/02/25 06:17:21;;;;;;;5.93;2.78;;;;;;;11.24;71.95;101189.97;2070119;28;20053;-74
2022/02/25 06:18:44;;;;;;;6.45;2.13;;;;;;;11.24;70.53;101194.34;2069972;28;20073;-74
2022/02/25 06:20:07;;;;;;;8.45;2.97;;;;;;;11.23;71.10;101182.88;2075645;28;20037;-74
2022/02/25 06:21:30;;;;;;;3.78;2.38;;;;;;;11.20;70.44;101185.50;2069255;28;20521;-74
2022/02/25 06:22:52;;;;;;;7.25;2.70;;;;;;;11.22;69.76;101190.81;2077494;28;20037;-74
2022/02/25 06:24:16;;;;;;;8.93;2.72;;;;;;;11.24;69.90;101183.78;2078211;28;20649;-74
2022/02/25 06:25:38;;;;;;;5.22;2.13;;;;;;;11.24;69.68;101192.59;2086227;28;20060;-74
2022/02/25 06:27:02;;;;;;;8.35;2.75;;;;;;;11.25;70.52;101197.03;2072517;28;20046;-74
2022/02/25 06:28:25;;;;;;;6.07;2.15;;;;;;;11.26;70.86;101219.06;2073487;28;20094;-74
2022/02/25 06:29:48;;;;;;;9.77;1.92;;;;;;;11.28;70.29;101226.19;2083768;28;20102;-74